sensor_id;sensor_type;location;lat;lon;timestamp;pressure;altitude;pressure_sealevel;temperature;humidity
70343;BME280;57767;42.068;24.752;2023-02-11T00:00:50;100760.50;;;-3.57;47.82
70343;BME280;57767;42.068;24.752;2023-02-11T00:01:52;100757.00;;;-3.56;48.42
70343;BME280;57767;42.068;24.752;2023-02-11T00:02:54;100762.91;;;-3.54;48.54
70343;BME280;57767;42.068;24.752;2023-02-11T00:03:57;100758.75;;;-3.56;48.26
70343;BME280;57767;42.068;24.752;2023-02-11T00:04:59;100762.16;;;-3.56;48.74
70343;BME280;57767;42.068;24.752;2023-02-11T00:06:06;100764.75;;;-3.56;48.51
70343;BME280;57767;42.068;24.752;2023-02-11T00:07:11;100755.53;;;-3.62;48.35
70343;BME280;57767;42.068;24.752;2023-02-11T00:08:13;100766.63;;;-3.59;48.07
70343;BME280;57767;42.068;24.752;2023-02-11T00:09:17;100769.91;;;-3.56;48.12
70343;BME280;57767;42.068;24.752;2023-02-11T00:10:19;100764.75;;;-3.56;48.03
70343;BME280;57767;42.068;24.752;2023-02-11T00:11:22;100762.16;;;-3.56;48.39
70343;BME280;57767;42.068;24.752;2023-02-11T00:12:25;100769.97;;;-3.57;48.19
70343;BME280;57767;42.068;24.752;2023-02-11T00:13:28;100764.88;;;-3.59;48.26
70343;BME280;57767;42.068;24.752;2023-02-11T00:14:30;100769.22;;;-3.59;48.07
70343;BME280;57767;42.068;24.752;2023-02-11T00:15:32;100767.59;;;-3.62;47.92
70343;BME280;57767;42.068;24.752;2023-02-11T00:16:34;100766.91;;;-3.66;48.43
70343;BME280;57767;42.068;24.752;2023-02-11T00:17:35;100754.22;;;-3.70;47.89
70343;BME280;57767;42.068;24.752;2023-02-11T00:18:38;100770.03;;;-3.59;48.91
70343;BME280;57767;42.068;24.752;2023-02-11T00:19:39;100769.41;;;-3.64;48.52
70343;BME280;57767;42.068;24.752;2023-02-11T00:20:41;100761.81;;;-3.67;48.37
70343;BME280;57767;42.068;24.752;2023-02-11T00:21:43;100757.72;;;-3.71;48.00
70343;BME280;57767;42.068;24.752;2023-02-11T00:22:45;100766.69;;;-3.61;48.14
70343;BME280;57767;42.068;24.752;2023-02-11T00:23:47;100780.31;;;-3.57;48.05
70343;BME280;57767;42.068;24.752;2023-02-11T00:24:49;100768.38;;;-3.60;47.81
70343;BME280;57767;42.068;24.752;2023-02-11T00:25:51;100781.91;;;-3.55;47.61
70343;BME280;57767;42.068;24.752;2023-02-11T00:26:53;100778.50;;;-3.55;47.18
70343;BME280;57767;42.068;24.752;2023-02-11T00:27:55;100788.72;;;-3.54;47.33
70343;BME280;57767;42.068;24.752;2023-02-11T00:28:57;100777.72;;;-3.57;47.15
70343;BME280;57767;42.068;24.752;2023-02-11T00:29:59;100766.81;;;-3.64;47.33
70343;BME280;57767;42.068;24.752;2023-02-11T00:31:02;100775.22;;;-3.59;47.39
70343;BME280;57767;42.068;24.752;2023-02-11T00:32:05;100759.78;;;-3.61;47.87
70343;BME280;57767;42.068;24.752;2023-02-11T00:33:09;100770.94;;;-3.60;47.30
70343;BME280;57767;42.068;24.752;2023-02-11T00:34:11;100770.13;;;-3.61;46.83
70343;BME280;57767;42.068;24.752;2023-02-11T00:35:12;100769.28;;;-3.61;47.38
70343;BME280;57767;42.068;24.752;2023-02-11T00:36:21;100772.56;;;-3.57;47.50
70343;BME280;57767;42.068;24.752;2023-02-11T00:37:23;100770.03;;;-3.59;47.10
70343;BME280;57767;42.068;24.752;2023-02-11T00:38:25;100773.47;;;-3.58;46.82
70343;BME280;57767;42.068;24.752;2023-02-11T00:39:27;100772.63;;;-3.59;47.07
70343;BME280;57767;42.068;24.752;2023-02-11T00:40:29;100778.56;;;-3.57;47.39
70343;BME280;57767;42.068;24.752;2023-02-11T00:41:30;100766.63;;;-3.59;46.63
70343;BME280;57767;42.068;24.752;2023-02-11T00:42:32;100764.38;;;-3.67;46.61
70343;BME280;57767;42.068;24.752;2023-02-11T00:43:36;100783.72;;;-3.57;46.43
70343;BME280;57767;42.068;24.752;2023-02-11T00:44:37;100775.06;;;-3.56;46.15
70343;BME280;57767;42.068;24.752;2023-02-11T00:45:39;100773.59;;;-3.62;45.96
70343;BME280;57767;42.068;24.752;2023-02-11T00:46:41;100764.13;;;-3.61;45.79
70343;BME280;57767;42.068;24.752;2023-02-11T00:47:43;100775.81;;;-3.54;45.90
70343;BME280;57767;42.068;24.752;2023-02-11T00:48:45;100772.97;;;-3.67;45.74
70343;BME280;57767;42.068;24.752;2023-02-11T00:49:46;100764.81;;;-3.76;45.93
70343;BME280;57767;42.068;24.752;2023-02-11T00:50:48;100765.72;;;-3.77;46.08
70343;BME280;57767;42.068;24.752;2023-02-11T00:51:50;100766.34;;;-3.72;46.12
70343;BME280;57767;42.068;24.752;2023-02-11T00:52:51;100762.63;;;-3.67;46.02
70343;BME280;57767;42.068;24.752;2023-02-11T00:53:54;100764.13;;;-3.61;45.97
70343;BME280;57767;42.068;24.752;2023-02-11T00:54:55;100770.88;;;-3.58;46.43
70343;BME280;57767;42.068;24.752;2023-02-11T00:55:57;100763.97;;;-3.58;46.09
70343;BME280;57767;42.068;24.752;2023-02-11T00:56:59;100752.25;;;-3.65;45.90
70343;BME280;57767;42.068;24.752;2023-02-11T00:58:01;100760.41;;;-3.55;46.13
70343;BME280;57767;42.068;24.752;2023-02-11T00:59:03;100766.41;;;-3.55;46.39
70343;BME280;57767;42.068;24.752;2023-02-11T01:00:05;100760.50;;;-3.57;46.74
70343;BME280;57767;42.068;24.752;2023-02-11T01:01:07;100762.38;;;-3.61;46.55
70343;BME280;57767;42.068;24.752;2023-02-11T01:02:09;100749.59;;;-3.64;46.69
70343;BME280;57767;42.068;24.752;2023-02-11T01:03:11;100757.41;;;-3.65;46.96
70343;BME280;57767;42.068;24.752;2023-02-11T01:04:13;100755.97;;;-3.71;46.79
70343;BME280;57767;42.068;24.752;2023-02-11T01:05:14;100744.31;;;-3.79;46.72
70343;BME280;57767;42.068;24.752;2023-02-11T01:06:16;100757.56;;;-3.68;46.86
70343;BME280;57767;42.068;24.752;2023-02-11T01:07:18;100759.09;;;-3.64;46.83
70343;BME280;57767;42.068;24.752;2023-02-11T01:08:20;100742.75;;;-3.65;46.93
70343;BME280;57767;42.068;24.752;2023-02-11T01:09:22;100752.09;;;-3.62;46.53
70343;BME280;57767;42.068;24.752;2023-02-11T01:10:24;100743.66;;;-3.66;46.29
70343;BME280;57767;42.068;24.752;2023-02-11T01:11:26;100754.41;;;-3.56;46.08
70343;BME280;57767;42.068;24.752;2023-02-11T01:12:27;100751.84;;;-3.56;46.18
70343;BME280;57767;42.068;24.752;2023-02-11T01:13:30;100746.66;;;-3.56;46.31
70343;BME280;57767;42.068;24.752;2023-02-11T01:14:32;100741.66;;;-3.59;46.17
70343;BME280;57767;42.068;24.752;2023-02-11T01:15:34;100739.66;;;-3.54;45.94
70343;BME280;57767;42.068;24.752;2023-02-11T01:16:36;100743.19;;;-3.55;45.42
70343;BME280;57767;42.068;24.752;2023-02-11T01:17:38;100740.81;;;-3.59;45.49
70343;BME280;57767;42.068;24.752;2023-02-11T01:18:40;100743.91;;;-3.53;45.49
70343;BME280;57767;42.068;24.752;2023-02-11T01:19:44;100748.50;;;-3.58;46.01
70343;BME280;57767;42.068;24.752;2023-02-11T01:20:46;100738.56;;;-3.67;45.85
70343;BME280;57767;42.068;24.752;2023-02-11T01:21:48;100737.47;;;-3.62;45.55
70343;BME280;57767;42.068;24.752;2023-02-11T01:22:50;100745.84;;;-3.56;45.77
70343;BME280;57767;42.068;24.752;2023-02-11T01:23:51;100737.31;;;-3.58;45.51
70343;BME280;57767;42.068;24.752;2023-02-11T01:24:53;100731.31;;;-3.59;45.49
70343;BME280;57767;42.068;24.752;2023-02-11T01:25:55;100741.19;;;-3.50;45.87
70343;BME280;57767;42.068;24.752;2023-02-11T01:26:57;100743.84;;;-3.51;46.71
70343;BME280;57767;42.068;24.752;2023-02-11T01:27:59;100734.50;;;-3.54;45.42
70343;BME280;57767;42.068;24.752;2023-02-11T01:29:00;100739.84;;;-3.57;45.77
70343;BME280;57767;42.068;24.752;2023-02-11T01:30:04;100733.97;;;-3.61;45.81
70343;BME280;57767;42.068;24.752;2023-02-11T01:31:06;100727.97;;;-3.61;45.82
70343;BME280;57767;42.068;24.752;2023-02-11T01:32:08;100729.78;;;-3.63;45.89
70343;BME280;57767;42.068;24.752;2023-02-11T01:33:10;100734.66;;;-3.57;45.83
70343;BME280;57767;42.068;24.752;2023-02-11T01:34:12;100730.56;;;-3.61;45.85
70343;BME280;57767;42.068;24.752;2023-02-11T01:35:13;100695.56;;;-3.85;45.77
70343;BME280;57767;42.068;24.752;2023-02-11T01:36:15;100725.81;;;-3.70;45.86
70343;BME280;57767;42.068;24.752;2023-02-11T01:37:17;100690.06;;;-3.97;45.64
70343;BME280;57767;42.068;24.752;2023-02-11T01:38:24;100729.19;;;-3.68;46.32
70343;BME280;57767;42.068;24.752;2023-02-11T01:39:26;100723.00;;;-3.66;47.19
70343;BME280;57767;42.068;24.752;2023-02-11T01:40:28;100721.97;;;-3.62;47.43
70343;BME280;57767;42.068;24.752;2023-02-11T01:41:30;100712.09;;;-3.71;47.08
70343;BME280;57767;42.068;24.752;2023-02-11T01:42:32;100713.81;;;-3.71;46.78
70343;BME280;57767;42.068;24.752;2023-02-11T01:43:46;100724.75;;;-3.66;46.81
70343;BME280;57767;42.068;24.752;2023-02-11T01:44:49;100723.84;;;-3.65;46.71
70343;BME280;57767;42.068;24.752;2023-02-11T01:45:59;100719.81;;;-3.71;46.95
70343;BME280;57767;42.068;24.752;2023-02-11T01:47:02;100733.28;;;-3.64;47.18
70343;BME280;57767;42.068;24.752;2023-02-11T01:48:07;100720.72;;;-3.72;46.83
70343;BME280;57767;42.068;24.752;2023-02-11T01:49:24;100712.91;;;-3.70;47.06
70343;BME280;57767;42.068;24.752;2023-02-11T01:50:27;100722.09;;;-3.65;46.89
70343;BME280;57767;42.068;24.752;2023-02-11T01:51:37;100733.84;;;-3.57;47.32
70343;BME280;57767;42.068;24.752;2023-02-11T01:52:40;100725.38;;;-3.61;47.42
70343;BME280;57767;42.068;24.752;2023-02-11T01:53:43;100730.69;;;-3.64;47.86
70343;BME280;57767;42.068;24.752;2023-02-11T01:55:08;100725.59;;;-3.66;47.74
70343;BME280;57767;42.068;24.752;2023-02-11T01:56:30;100717.09;;;-3.68;47.19
70343;BME280;57767;42.068;24.752;2023-02-11T01:57:53;100720.34;;;-3.64;47.30
70343;BME280;57767;42.068;24.752;2023-02-11T01:59:05;100710.53;;;-3.75;47.28
70343;BME280;57767;42.068;24.752;2023-02-11T02:00:17;100717.59;;;-3.78;46.83
70343;BME280;57767;42.068;24.752;2023-02-11T02:01:24;100715.91;;;-3.79;46.65
70343;BME280;57767;42.068;24.752;2023-02-11T02:02:34;100723.50;;;-3.76;47.16
70343;BME280;57767;42.068;24.752;2023-02-11T02:03:41;100725.19;;;-3.75;47.78
70343;BME280;57767;42.068;24.752;2023-02-11T02:05:41;100720.34;;;-3.81;48.36
70343;BME280;57767;42.068;24.752;2023-02-11T02:06:28;100723.31;;;-3.90;48.75
70343;BME280;57767;42.068;24.752;2023-02-11T02:07:40;100719.97;;;-3.92;48.18
70343;BME280;57767;42.068;24.752;2023-02-11T02:09:00;100721.56;;;-3.90;48.43
70343;BME280;57767;42.068;24.752;2023-02-11T02:10:08;100721.50;;;-3.88;48.30
70343;BME280;57767;42.068;24.752;2023-02-11T02:11:12;100719.06;;;-3.91;48.60
70343;BME280;57767;42.068;24.752;2023-02-11T02:12:13;100719.16;;;-3.93;48.40
70343;BME280;57767;42.068;24.752;2023-02-11T02:13:15;100719.28;;;-3.96;48.75
70343;BME280;57767;42.068;24.752;2023-02-11T02:14:18;100719.50;;;-4.01;48.76
70343;BME280;57767;42.068;24.752;2023-02-11T02:16:32;100712.19;;;-4.10;48.89
70343;BME280;57767;42.068;24.752;2023-02-11T02:17:46;100702.13;;;-4.16;48.55
70343;BME280;57767;42.068;24.752;2023-02-11T02:30:10;100712.28;;;-4.50;50.17
70343;BME280;57767;42.068;24.752;2023-02-11T02:31:29;100711.38;;;-4.49;49.86
70343;BME280;57767;42.068;24.752;2023-02-11T02:40:04;100710.59;;;-4.51;49.82
70343;BME280;57767;42.068;24.752;2023-02-11T02:41:15;100716.53;;;-4.49;49.26
70343;BME280;57767;42.068;24.752;2023-02-11T02:42:18;100710.53;;;-4.50;49.60
70343;BME280;57767;42.068;24.752;2023-02-11T02:43:21;100719.88;;;-4.47;49.70
70343;BME280;57767;42.068;24.752;2023-02-11T02:44:24;100721.19;;;-4.57;49.92
70343;BME280;57767;42.068;24.752;2023-02-11T02:45:26;100726.06;;;-4.51;49.70
70343;BME280;57767;42.068;24.752;2023-02-11T02:46:31;100726.00;;;-4.50;49.10
70343;BME280;57767;42.068;24.752;2023-02-11T02:47:33;100728.59;;;-4.50;49.16
70343;BME280;57767;42.068;24.752;2023-02-11T02:48:34;100726.19;;;-4.54;49.12
70343;BME280;57767;42.068;24.752;2023-02-11T02:49:36;100730.44;;;-4.53;49.18
70343;BME280;57767;42.068;24.752;2023-02-11T02:50:38;100729.50;;;-4.51;49.64
70343;BME280;57767;42.068;24.752;2023-02-11T02:52:03;100733.03;;;-4.53;49.28
70343;BME280;57767;42.068;24.752;2023-02-11T02:53:25;100717.47;;;-4.71;49.28
70343;BME280;57767;42.068;24.752;2023-02-11T02:54:52;100729.00;;;-4.59;48.85
70343;BME280;57767;42.068;24.752;2023-02-11T03:00:23;100732.53;;;-4.61;49.81
70343;BME280;57767;42.068;24.752;2023-02-11T03:03:14;100733.38;;;-4.61;50.13
70343;BME280;57767;42.068;24.752;2023-02-11T03:04:40;100733.38;;;-4.61;49.50
70343;BME280;57767;42.068;24.752;2023-02-11T03:07:09;100722.34;;;-4.64;50.68
70343;BME280;57767;42.068;24.752;2023-02-11T03:08:37;100728.28;;;-4.62;50.29
70343;BME280;57767;42.068;24.752;2023-02-11T03:10:08;100729.06;;;-4.60;50.83
70343;BME280;57767;42.068;24.752;2023-02-11T03:11:12;100734.16;;;-4.59;50.52
70343;BME280;57767;42.068;24.752;2023-02-11T03:12:16;100726.72;;;-4.66;50.42
70343;BME280;57767;42.068;24.752;2023-02-11T03:13:23;100736.84;;;-4.62;49.61
70343;BME280;57767;42.068;24.752;2023-02-11T03:14:27;100737.69;;;-4.61;49.75
70343;BME280;57767;42.068;24.752;2023-02-11T03:15:33;100721.72;;;-4.70;49.80
70343;BME280;57767;42.068;24.752;2023-02-11T03:16:38;100732.59;;;-4.63;50.12
70343;BME280;57767;42.068;24.752;2023-02-11T03:17:44;100721.84;;;-4.73;50.62
70343;BME280;57767;42.068;24.752;2023-02-11T03:18:58;100718.44;;;-4.73;50.70
70343;BME280;57767;42.068;24.752;2023-02-11T03:20:03;100704.06;;;-4.79;50.71
70343;BME280;57767;42.068;24.752;2023-02-11T03:21:08;100722.69;;;-4.72;50.81
70343;BME280;57767;42.068;24.752;2023-02-11T03:22:16;100729.47;;;-4.70;50.64
70343;BME280;57767;42.068;24.752;2023-02-11T03:23:29;100733.84;;;-4.72;50.67
70343;BME280;57767;42.068;24.752;2023-02-11T03:24:36;100720.19;;;-4.74;50.16
70343;BME280;57767;42.068;24.752;2023-02-11T03:25:49;100724.31;;;-4.70;49.91
70343;BME280;57767;42.068;24.752;2023-02-11T03:26:56;100726.09;;;-4.72;50.66
70343;BME280;57767;42.068;24.752;2023-02-11T03:28:07;100727.00;;;-4.73;50.61
70343;BME280;57767;42.068;24.752;2023-02-11T03:30:37;100731.78;;;-4.84;51.67
70343;BME280;57767;42.068;24.752;2023-02-11T03:31:50;100708.97;;;-4.93;52.64
70343;BME280;57767;42.068;24.752;2023-02-11T03:33:02;100717.88;;;-5.00;53.04
70343;BME280;57767;42.068;24.752;2023-02-11T03:34:13;100716.63;;;-5.12;53.36
70343;BME280;57767;42.068;24.752;2023-02-11T03:35:20;100725.91;;;-5.08;53.46
70343;BME280;57767;42.068;24.752;2023-02-11T03:38:06;100716.03;;;-5.18;54.19
70343;BME280;57767;42.068;24.752;2023-02-11T03:39:10;100728.34;;;-5.05;53.63
70343;BME280;57767;42.068;24.752;2023-02-11T03:40:28;100737.06;;;-5.07;53.55
70343;BME280;57767;42.068;24.752;2023-02-11T03:41:33;100719.84;;;-5.07;53.32
70343;BME280;57767;42.068;24.752;2023-02-11T03:42:43;100730.34;;;-5.11;53.80
70343;BME280;57767;42.068;24.752;2023-02-11T03:43:50;100709.47;;;-5.25;54.37
70343;BME280;57767;42.068;24.752;2023-02-11T03:44:57;100725.44;;;-5.17;54.13
70343;BME280;57767;42.068;24.752;2023-02-11T03:46:02;100728.00;;;-5.17;53.61
70343;BME280;57767;42.068;24.752;2023-02-11T03:47:06;100717.97;;;-5.23;53.40
70343;BME280;57767;42.068;24.752;2023-02-11T03:49:41;100730.00;;;-5.24;54.10
70343;BME280;57767;42.068;24.752;2023-02-11T03:50:45;100735.09;;;-5.22;53.85
70343;BME280;57767;42.068;24.752;2023-02-11T03:51:50;100732.41;;;-5.19;53.46
70343;BME280;57767;42.068;24.752;2023-02-11T03:52:54;100732.47;;;-5.21;53.71
70343;BME280;57767;42.068;24.752;2023-02-11T03:53:59;100740.06;;;-5.18;54.32
70343;BME280;57767;42.068;24.752;2023-02-11T03:55:07;100740.00;;;-5.16;53.69
70343;BME280;57767;42.068;24.752;2023-02-11T03:56:16;100743.34;;;-5.14;53.90
70343;BME280;57767;42.068;24.752;2023-02-11T03:57:20;100741.66;;;-5.15;53.27
70343;BME280;57767;42.068;24.752;2023-02-11T03:58:21;100726.00;;;-5.31;53.63
70343;BME280;57767;42.068;24.752;2023-02-11T03:59:23;100734.03;;;-5.38;54.08
70343;BME280;57767;42.068;24.752;2023-02-11T04:00:36;100740.88;;;-5.37;54.68
70343;BME280;57767;42.068;24.752;2023-02-11T04:01:40;100736.44;;;-5.34;54.66
70343;BME280;57767;42.068;24.752;2023-02-11T04:02:42;100737.41;;;-5.36;54.78
70343;BME280;57767;42.068;24.752;2023-02-11T04:03:44;100719.09;;;-5.51;55.21
70343;BME280;57767;42.068;24.752;2023-02-11T04:04:46;100734.31;;;-5.45;55.33
70343;BME280;57767;42.068;24.752;2023-02-11T04:05:48;100739.25;;;-5.40;55.41
70343;BME280;57767;42.068;24.752;2023-02-11T04:06:50;100725.06;;;-5.50;56.29
70343;BME280;57767;42.068;24.752;2023-02-11T04:07:52;100735.94;;;-5.44;55.99
70343;BME280;57767;42.068;24.752;2023-02-11T04:08:54;100729.97;;;-5.44;56.24
70343;BME280;57767;42.068;24.752;2023-02-11T04:09:55;100729.84;;;-5.41;55.82
70343;BME280;57767;42.068;24.752;2023-02-11T04:10:57;100730.69;;;-5.41;55.82
70343;BME280;57767;42.068;24.752;2023-02-11T04:11:59;100739.31;;;-5.42;55.94
70343;BME280;57767;42.068;24.752;2023-02-11T04:13:01;100738.66;;;-5.47;56.53
70343;BME280;57767;42.068;24.752;2023-02-11T04:14:03;100724.41;;;-5.55;56.37
70343;BME280;57767;42.068;24.752;2023-02-11T04:15:05;100733.31;;;-5.42;57.12
70343;BME280;57767;42.068;24.752;2023-02-11T04:16:07;100743.38;;;-5.36;56.21
70343;BME280;57767;42.068;24.752;2023-02-11T04:17:09;100729.91;;;-5.43;56.35
70343;BME280;57767;42.068;24.752;2023-02-11T04:18:11;100742.44;;;-5.33;57.16
70343;BME280;57767;42.068;24.752;2023-02-11T04:19:12;100724.00;;;-5.45;56.63
70343;BME280;57767;42.068;24.752;2023-02-11T04:20:14;100731.41;;;-5.37;56.01
70343;BME280;57767;42.068;24.752;2023-02-11T04:21:16;100739.44;;;-5.45;56.38
70343;BME280;57767;42.068;24.752;2023-02-11T04:22:18;100728.47;;;-5.50;56.39
70343;BME280;57767;42.068;24.752;2023-02-11T04:23:19;100732.53;;;-5.44;56.63
70343;BME280;57767;42.068;24.752;2023-02-11T04:24:21;100727.59;;;-5.49;55.78
70343;BME280;57767;42.068;24.752;2023-02-11T04:25:23;100726.56;;;-5.45;56.09
70343;BME280;57767;42.068;24.752;2023-02-11T04:26:26;100730.78;;;-5.44;56.19
70343;BME280;57767;42.068;24.752;2023-02-11T04:27:28;100721.22;;;-5.40;56.49
70343;BME280;57767;42.068;24.752;2023-02-11T04:28:30;100701.25;;;-5.55;56.43
70343;BME280;57767;42.068;24.752;2023-02-11T04:29:32;100722.31;;;-5.46;56.51
70343;BME280;57767;42.068;24.752;2023-02-11T04:30:34;100724.22;;;-5.51;56.75
70343;BME280;57767;42.068;24.752;2023-02-11T04:31:35;100725.06;;;-5.50;56.25
70343;BME280;57767;42.068;24.752;2023-02-11T04:32:37;100723.28;;;-5.48;56.99
70343;BME280;57767;42.068;24.752;2023-02-11T04:33:39;100724.91;;;-5.46;57.10
70343;BME280;57767;42.068;24.752;2023-02-11T04:34:41;100718.84;;;-5.45;56.49
70343;BME280;57767;42.068;24.752;2023-02-11T04:35:42;100725.59;;;-5.42;56.30
70343;BME280;57767;42.068;24.752;2023-02-11T04:36:44;100722.97;;;-5.41;56.63
70343;BME280;57767;42.068;24.752;2023-02-11T04:37:46;100714.41;;;-5.41;56.75
70343;BME280;57767;42.068;24.752;2023-02-11T04:38:48;100716.84;;;-5.38;56.17
70343;BME280;57767;42.068;24.752;2023-02-11T04:39:49;100708.41;;;-5.42;56.67
70343;BME280;57767;42.068;24.752;2023-02-11T04:40:51;100718.53;;;-5.37;56.54
70343;BME280;57767;42.068;24.752;2023-02-11T04:41:53;100709.25;;;-5.41;56.69
70343;BME280;57767;42.068;24.752;2023-02-11T04:42:55;100711.66;;;-5.36;57.13
70343;BME280;57767;42.068;24.752;2023-02-11T04:43:56;100723.63;;;-5.35;56.86
70343;BME280;57767;42.068;24.752;2023-02-11T04:44:58;100706.78;;;-5.44;56.98
70343;BME280;57767;42.068;24.752;2023-02-11T04:46:00;100717.81;;;-5.41;57.30
70343;BME280;57767;42.068;24.752;2023-02-11T04:47:02;100703.53;;;-5.48;57.67
70343;BME280;57767;42.068;24.752;2023-02-11T04:48:04;100710.09;;;-5.41;57.38
70343;BME280;57767;42.068;24.752;2023-02-11T04:49:05;100716.34;;;-5.46;57.65
70343;BME280;57767;42.068;24.752;2023-02-11T04:50:07;100713.09;;;-5.51;58.06
70343;BME280;57767;42.068;24.752;2023-02-11T04:51:10;100713.22;;;-5.54;57.57
70343;BME280;57767;42.068;24.752;2023-02-11T04:52:12;100700.66;;;-5.62;58.12
70343;BME280;57767;42.068;24.752;2023-02-11T04:53:13;100710.78;;;-5.57;57.84
70343;BME280;57767;42.068;24.752;2023-02-11T04:54:16;100700.78;;;-5.65;58.17
70343;BME280;57767;42.068;24.752;2023-02-11T04:55:17;100705.03;;;-5.64;58.27
70343;BME280;57767;42.068;24.752;2023-02-11T04:56:19;100705.81;;;-5.62;57.47
70343;BME280;57767;42.068;24.752;2023-02-11T04:57:21;100703.97;;;-5.58;57.70
70343;BME280;57767;42.068;24.752;2023-02-11T04:58:23;100705.69;;;-5.59;57.04
70343;BME280;57767;42.068;24.752;2023-02-11T04:59:24;100705.44;;;-5.53;56.97
70343;BME280;57767;42.068;24.752;2023-02-11T05:00:26;100699.44;;;-5.53;56.54
70343;BME280;57767;42.068;24.752;2023-02-11T05:01:28;100697.59;;;-5.50;56.67
70343;BME280;57767;42.068;24.752;2023-02-11T05:02:30;100705.06;;;-5.44;56.86
70343;BME280;57767;42.068;24.752;2023-02-11T05:03:32;100705.06;;;-5.44;56.87
70343;BME280;57767;42.068;24.752;2023-02-11T05:04:34;100707.56;;;-5.42;56.64
70343;BME280;57767;42.068;24.752;2023-02-11T05:05:40;100699.78;;;-5.41;55.96
70343;BME280;57767;42.068;24.752;2023-02-11T05:06:42;100704.03;;;-5.39;56.25
70343;BME280;57767;42.068;24.752;2023-02-11T05:07:44;100701.47;;;-5.39;56.09
70343;BME280;57767;42.068;24.752;2023-02-11T05:08:46;100709.19;;;-5.39;56.87
70343;BME280;57767;42.068;24.752;2023-02-11T05:09:47;100697.22;;;-5.41;56.89
70343;BME280;57767;42.068;24.752;2023-02-11T05:10:49;100692.97;;;-5.42;56.61
70343;BME280;57767;42.068;24.752;2023-02-11T05:11:51;100704.72;;;-5.34;56.66
70343;BME280;57767;42.068;24.752;2023-02-11T05:12:54;100691.22;;;-5.41;56.43
70343;BME280;57767;42.068;24.752;2023-02-11T05:13:56;100706.25;;;-5.30;56.27
70343;BME280;57767;42.068;24.752;2023-02-11T05:14:58;100703.75;;;-5.32;56.77
70343;BME280;57767;42.068;24.752;2023-02-11T05:16:00;100696.78;;;-5.30;56.90
70343;BME280;57767;42.068;24.752;2023-02-11T05:17:01;100693.25;;;-5.27;56.36
70343;BME280;57767;42.068;24.752;2023-02-11T05:18:03;100709.47;;;-5.25;56.55
70343;BME280;57767;42.068;24.752;2023-02-11T05:19:05;100711.03;;;-5.21;55.70
70343;BME280;57767;42.068;24.752;2023-02-11T05:20:07;100700.72;;;-5.21;56.04
70343;BME280;57767;42.068;24.752;2023-02-11T05:21:13;100707.56;;;-5.20;55.73
70343;BME280;57767;42.068;24.752;2023-02-11T05:22:16;100692.84;;;-5.38;56.24
70343;BME280;57767;42.068;24.752;2023-02-11T05:23:18;100685.63;;;-5.51;56.41
70343;BME280;57767;42.068;24.752;2023-02-11T05:24:19;100716.63;;;-5.32;56.52
70343;BME280;57767;42.068;24.752;2023-02-11T05:25:21;100691.44;;;-5.46;56.12
70343;BME280;57767;42.068;24.752;2023-02-11T05:26:23;100702.56;;;-5.45;56.10
70343;BME280;57767;42.068;24.752;2023-02-11T05:27:25;100698.13;;;-5.42;56.07
70343;BME280;57767;42.068;24.752;2023-02-11T05:28:27;100711.38;;;-5.30;55.94
70343;BME280;57767;42.068;24.752;2023-02-11T05:29:29;100713.78;;;-5.26;56.23
70343;BME280;57767;42.068;24.752;2023-02-11T05:30:31;100702.81;;;-5.31;56.15
70343;BME280;57767;42.068;24.752;2023-02-11T05:31:33;100705.16;;;-5.25;56.18
70343;BME280;57767;42.068;24.752;2023-02-11T05:32:35;100709.59;;;-5.28;56.23
70343;BME280;57767;42.068;24.752;2023-02-11T05:33:36;100720.44;;;-5.20;55.75
70343;BME280;57767;42.068;24.752;2023-02-11T05:34:38;100696.94;;;-5.33;55.07
70343;BME280;57767;42.068;24.752;2023-02-11T05:35:40;100717.91;;;-5.22;55.99
70343;BME280;57767;42.068;24.752;2023-02-11T05:36:42;100703.66;;;-5.30;55.33
70343;BME280;57767;42.068;24.752;2023-02-11T05:37:44;100719.53;;;-5.19;54.45
70343;BME280;57767;42.068;24.752;2023-02-11T05:38:45;100726.22;;;-5.15;54.53
70343;BME280;57767;42.068;24.752;2023-02-11T05:39:47;100718.50;;;-5.15;55.87
70343;BME280;57767;42.068;24.752;2023-02-11T05:40:49;100718.44;;;-5.14;55.78
70343;BME280;57767;42.068;24.752;2023-02-11T05:41:51;100726.94;;;-5.12;55.79
70343;BME280;57767;42.068;24.752;2023-02-11T05:42:52;100717.47;;;-5.11;55.92
70343;BME280;57767;42.068;24.752;2023-02-11T05:43:54;100727.56;;;-5.07;55.98
70343;BME280;57767;42.068;24.752;2023-02-11T05:44:56;100716.50;;;-5.09;55.53
70343;BME280;57767;42.068;24.752;2023-02-11T05:45:58;100706.28;;;-5.10;56.62
70343;BME280;57767;42.068;24.752;2023-02-11T05:47:00;100720.56;;;-5.03;56.32
70343;BME280;57767;42.068;24.752;2023-02-11T05:48:02;100723.78;;;-4.98;55.93
70343;BME280;57767;42.068;24.752;2023-02-11T05:49:04;100724.41;;;-4.93;56.13
70343;BME280;57767;42.068;24.752;2023-02-11T05:50:06;100727.16;;;-4.96;56.36
70343;BME280;57767;42.068;24.752;2023-02-11T05:51:08;100722.34;;;-5.05;56.38
70343;BME280;57767;42.068;24.752;2023-02-11T05:52:10;100731.19;;;-5.11;56.95
70343;BME280;57767;42.068;24.752;2023-02-11T05:53:11;100730.28;;;-5.10;56.48
70343;BME280;57767;42.068;24.752;2023-02-11T05:54:14;100723.91;;;-5.01;56.78
70343;BME280;57767;42.068;24.752;2023-02-11T05:55:15;100732.41;;;-4.99;56.91
70343;BME280;57767;42.068;24.752;2023-02-11T05:56:17;100704.47;;;-5.08;56.42
70343;BME280;57767;42.068;24.752;2023-02-11T05:57:19;100732.03;;;-4.90;55.76
70343;BME280;57767;42.068;24.752;2023-02-11T05:58:21;100728.31;;;-4.83;55.95
70343;BME280;57767;42.068;24.752;2023-02-11T05:59:22;100707.22;;;-4.92;55.64
70343;BME280;57767;42.068;24.752;2023-02-11T06:00:24;100706.97;;;-4.86;56.22
70343;BME280;57767;42.068;24.752;2023-02-11T06:01:26;100722.88;;;-4.77;56.39
70343;BME280;57767;42.068;24.752;2023-02-11T06:02:28;100715.09;;;-4.75;56.00
70343;BME280;57767;42.068;24.752;2023-02-11T06:03:30;100727.41;;;-4.82;56.32